createdAt,value
2022-12-28T00:03:54.311Z,73.07
2022-12-28T00:07:57.345Z,73.24
2022-12-28T00:12:02.086Z,73.22
2022-12-28T00:16:09.500Z,73.26
2022-12-28T00:20:13.884Z,73.17
2022-12-28T00:24:20.228Z,73.47
2022-12-28T00:28:24.903Z,73.49
2022-12-28T00:32:28.293Z,73.67
2022-12-28T00:37:09.902Z,73.53
2022-12-28T00:40:55.166Z,73.96
2022-12-28T00:45:00.137Z,74.16
2022-12-28T00:49:04.304Z,73.80
2022-12-28T00:53:07.585Z,73.71
2022-12-28T00:57:10.567Z,73.88
2022-12-28T01:01:18.377Z,74.30
2022-12-28T01:05:21.638Z,74.32
2022-12-28T01:09:24.995Z,74.72
2022-12-28T01:13:28.091Z,74.47
2022-12-28T01:17:32.838Z,74.25
2022-12-28T01:21:37.379Z,74.00
2022-12-28T01:25:40.961Z,74.16
2022-12-28T01:29:43.974Z,74.21
2022-12-28T01:33:49.303Z,74.12
2022-12-28T01:37:52.341Z,74.21
2022-12-28T01:41:55.737Z,74.21
2022-12-28T01:45:58.929Z,74.03
2022-12-28T01:50:09.224Z,74.34
2022-12-28T01:54:12.994Z,74.28
2022-12-28T01:58:20.652Z,74.30
2022-12-28T02:02:24.370Z,74.34
2022-12-28T02:06:29.407Z,74.35
2022-12-28T02:10:42.996Z,74.31
2022-12-28T02:14:49.317Z,74.58
2022-12-28T02:18:53.934Z,74.11
2022-12-28T02:23:24.652Z,74.16
2022-12-28T02:27:39.392Z,74.68
2022-12-28T02:31:51.424Z,74.95
2022-12-28T02:36:00.005Z,74.76
2022-12-28T02:40:07.290Z,74.82
2022-12-28T02:44:11.400Z,74.67
2022-12-28T02:48:33.225Z,74.54
2022-12-28T02:53:07.268Z,74.68
2022-12-28T02:57:24.808Z,74.99
2022-12-28T03:01:51.337Z,74.88
2022-12-28T03:06:30.628Z,75.26
2022-12-28T03:10:43.215Z,75.66
2022-12-28T03:14:48.325Z,75.00
2022-12-28T03:19:18.179Z,75.21
2022-12-28T03:23:41.537Z,75.15
2022-12-28T03:28:03.308Z,75.05
2022-12-28T03:32:07.711Z,74.41
2022-12-28T03:36:17.075Z,74.54
2022-12-28T03:40:31.432Z,74.51
2022-12-28T03:44:37.130Z,74.67
2022-12-28T03:48:40.854Z,74.60
2022-12-28T03:52:44.541Z,74.95
2022-12-28T03:56:51.245Z,74.78
2022-12-28T04:00:54.513Z,75.00
2022-12-28T04:04:57.919Z,74.98
2022-12-28T04:09:01.270Z,75.02
2022-12-28T04:13:05.736Z,75.01
2022-12-28T04:17:09.059Z,74.93
2022-12-28T04:21:13.084Z,75.06
2022-12-28T04:25:16.495Z,75.09
2022-12-28T04:29:21.272Z,74.86
2022-12-28T04:33:24.941Z,74.78
2022-12-28T04:37:28.144Z,75.08
2022-12-28T04:41:31.396Z,75.11
2022-12-28T04:45:36.166Z,75.15
2022-12-28T04:49:39.456Z,75.11
2022-12-28T04:53:43.726Z,74.87
2022-12-28T04:57:47.509Z,75.21
2022-12-28T05:01:52.070Z,74.99
2022-12-28T05:05:55.270Z,74.95
2022-12-28T05:09:58.525Z,75.24
2022-12-28T05:14:01.810Z,75.43
2022-12-28T05:18:06.597Z,75.54
2022-12-28T05:22:39.085Z,75.30
2022-12-28T05:26:44.125Z,74.92
2022-12-28T05:30:47.227Z,74.84
2022-12-28T05:34:52.037Z,74.49
2022-12-28T05:38:56.093Z,74.28
2022-12-28T05:42:59.535Z,74.34
2022-12-28T05:47:02.805Z,74.54
2022-12-28T05:51:10.027Z,74.65
2022-12-28T05:55:12.999Z,74.62
2022-12-28T05:59:16.200Z,75.04
2022-12-28T06:03:19.739Z,75.20
2022-12-28T06:07:24.672Z,75.29
2022-12-28T06:11:29.417Z,75.52
2022-12-28T06:15:32.589Z,75.83
2022-12-28T06:19:35.754Z,75.78
2022-12-28T06:23:40.326Z,75.66
2022-12-28T06:27:43.458Z,75.29
2022-12-28T06:31:49.453Z,75.23
2022-12-28T06:35:52.845Z,74.51
2022-12-28T06:39:57.567Z,74.50
2022-12-28T06:44:01.462Z,74.91
2022-12-28T06:48:04.753Z,74.80
2022-12-28T06:52:08.115Z,74.66
2022-12-28T06:56:18.774Z,74.61
2022-12-28T07:00:22.243Z,74.67
2022-12-28T07:04:25.283Z,74.57
2022-12-28T07:08:28.583Z,74.45
2022-12-28T07:12:33.103Z,74.70
2022-12-28T07:20:40.673Z,74.79
2022-12-28T07:24:44.056Z,74.79
2022-12-28T07:28:50.603Z,74.48
2022-12-28T07:32:53.892Z,74.11
2022-12-28T07:36:56.916Z,74.16
2022-12-28T07:41:03.543Z,73.82
2022-12-28T07:45:11.180Z,73.91
2022-12-28T07:49:14.482Z,73.77
2022-12-28T07:53:22.071Z,73.47
2022-12-28T07:57:25.684Z,73.67
2022-12-28T08:01:32.172Z,73.91
2022-12-28T08:05:35.449Z,73.63
2022-12-28T08:09:38.931Z,74.06
2022-12-28T08:13:43.830Z,74.70
2022-12-28T08:17:48.372Z,75.59
2022-12-28T08:21:51.706Z,75.89
2022-12-28T08:25:54.742Z,76.32
2022-12-28T08:29:59.076Z,75.64
2022-12-28T08:34:06.943Z,75.14
2022-12-28T08:38:10.243Z,74.16
2022-12-28T08:42:13.448Z,73.42
2022-12-28T08:46:18.779Z,72.82
2022-12-28T08:50:29.541Z,71.74
2022-12-28T08:54:34.856Z,72.18
2022-12-28T08:58:38.510Z,73.34
2022-12-28T09:02:41.744Z,73.64
2022-12-28T09:06:46.983Z,72.99
2022-12-28T09:10:50.374Z,71.85
2022-12-28T09:14:53.505Z,70.95
2022-12-28T09:18:58.678Z,69.63
2022-12-28T09:23:03.513Z,69.18
2022-12-28T09:27:06.598Z,69.84
2022-12-28T09:31:11.740Z,68.11
2022-12-28T09:35:14.950Z,67.98
2022-12-28T09:39:23.456Z,67.04
2022-12-28T09:43:28.367Z,67.92
2022-12-28T09:47:39.929Z,67.57
2022-12-28T09:51:52.197Z,66.53
2022-12-28T09:56:01.434Z,67.15
2022-12-28T10:00:06.375Z,66.96
2022-12-28T10:04:12.467Z,65.83
2022-12-28T10:08:17.791Z,65.42
2022-12-28T10:12:24.932Z,65.47
2022-12-28T10:16:31.847Z,63.20
2022-12-28T10:20:35.622Z,63.01
2022-12-28T10:24:41.751Z,61.32
2022-12-28T10:28:50.527Z,61.75
2022-12-28T10:33:02.141Z,61.67
2022-12-28T10:37:13.999Z,60.81
2022-12-28T10:41:20.053Z,61.34
2022-12-28T10:45:28.784Z,61.21
2022-12-28T10:49:37.593Z,60.96
2022-12-28T10:53:44.291Z,60.38
2022-12-28T10:58:27.044Z,59.64
2022-12-28T11:02:29.360Z,62.21
2022-12-28T11:06:34.672Z,59.80
2022-12-28T11:10:38.059Z,59.17
2022-12-28T11:14:41.587Z,60.84
2022-12-28T11:18:46.290Z,60.07
2022-12-28T11:22:49.782Z,58.74
2022-12-28T11:32:44.176Z,61.96
2022-12-28T11:36:49.804Z,59.52
2022-12-28T11:40:54.403Z,59.53
2022-12-28T11:44:59.141Z,59.45
2022-12-28T11:49:03.645Z,60.16
2022-12-28T11:57:35.397Z,60.80
2022-12-28T12:01:49.191Z,65.51
2022-12-28T12:05:54.511Z,57.45
2022-12-28T12:10:34.107Z,61.82
2022-12-28T12:14:43.915Z,58.73
2022-12-28T12:18:51.893Z,57.79
2022-12-28T12:23:00.757Z,56.55
2022-12-28T12:27:13.742Z,56.17
2022-12-28T12:31:27.132Z,57.67
2022-12-28T12:35:36.321Z,56.54
2022-12-28T12:40:17.281Z,60.33
2022-12-28T12:44:34.762Z,58.85
2022-12-28T12:49:01.909Z,60.89
2022-12-28T12:53:15.910Z,58.83
2022-12-28T12:57:26.798Z,59.44
2022-12-28T13:01:38.277Z,59.81
2022-12-28T13:05:46.279Z,59.78
2022-12-28T13:09:50.331Z,59.75
2022-12-28T13:13:55.495Z,59.62
2022-12-28T13:18:42.875Z,60.49
2022-12-28T13:22:32.888Z,59.11
2022-12-28T13:26:36.216Z,59.05
2022-12-28T13:30:39.912Z,59.06
2022-12-28T13:34:51.001Z,59.51
2022-12-28T13:39:13.582Z,61.34
2022-12-28T13:44:08.830Z,62.43
2022-12-28T13:48:12.506Z,59.98
2022-12-28T13:52:22.304Z,60.83
2022-12-28T13:56:29.705Z,61.32
2022-12-28T14:00:34.989Z,60.94
2022-12-28T14:04:54.084Z,61.26
2022-12-28T14:09:03.838Z,61.61
2022-12-28T14:13:11.758Z,61.81
2022-12-28T14:17:15.825Z,61.87
2022-12-28T14:21:34.185Z,62.75
2022-12-28T14:25:43.381Z,62.61
2022-12-28T14:29:48.228Z,62.74
2022-12-28T14:33:54.216Z,62.46
2022-12-28T14:37:59.366Z,62.23
2022-12-28T14:42:04.129Z,62.35
2022-12-28T14:46:29.406Z,62.85
2022-12-28T14:50:33.096Z,62.76
2022-12-28T14:54:45.419Z,63.65
2022-12-28T14:58:51.637Z,63.59
2022-12-28T15:02:57.496Z,63.71
2022-12-28T15:07:00.549Z,64.54
2022-12-28T15:15:10.373Z,65.02
2022-12-28T15:19:15.014Z,65.94
2022-12-28T15:23:18.135Z,66.81
2022-12-28T15:27:21.208Z,67.41
2022-12-28T15:31:24.566Z,67.54
2022-12-28T15:35:29.562Z,68.08
2022-12-28T15:39:32.735Z,68.22
2022-12-28T15:43:35.808Z,69.03
2022-12-28T15:47:39.001Z,69.15
2022-12-28T15:51:44.734Z,69.35
2022-12-28T15:56:00.036Z,69.34
2022-12-28T16:00:04.169Z,69.65
2022-12-28T16:04:07.536Z,70.57
2022-12-28T16:08:12.278Z,70.79
2022-12-28T16:12:18.456Z,71.05
2022-12-28T16:16:22.670Z,71.57
2022-12-28T16:20:25.866Z,71.08
2022-12-28T16:24:30.653Z,71.37
2022-12-28T16:28:34.071Z,72.58
2022-12-28T16:32:37.575Z,72.18
2022-12-28T16:36:41.723Z,72.39
2022-12-28T16:40:46.540Z,72.58
2022-12-28T16:44:51.141Z,72.69
2022-12-28T16:48:54.281Z,72.45
2022-12-28T16:53:01.159Z,71.88
2022-12-28T16:57:05.736Z,71.98
2022-12-28T17:01:11.245Z,72.69
2022-12-28T17:05:14.880Z,72.50
2022-12-28T17:09:20.338Z,72.43
2022-12-28T17:13:25.054Z,73.08
2022-12-28T17:17:28.529Z,73.44
2022-12-28T17:21:33.196Z,73.45
2022-12-28T17:25:37.719Z,73.24
2022-12-28T17:29:42.458Z,73.58
2022-12-28T17:33:47.057Z,73.35
2022-12-28T17:37:51.037Z,73.36
2022-12-28T17:41:54.322Z,73.07
2022-12-28T17:46:02.489Z,73.43
2022-12-28T17:50:06.589Z,73.69
2022-12-28T17:54:12.243Z,73.76
2022-12-28T17:58:17.092Z,73.65
2022-12-28T18:02:22.191Z,73.47
2022-12-28T18:06:26.132Z,73.72
2022-12-28T18:10:29.393Z,73.58
2022-12-28T18:14:32.573Z,74.01
2022-12-28T18:18:37.570Z,73.79
2022-12-28T18:22:43.433Z,73.96
2022-12-28T18:26:46.700Z,74.55
2022-12-28T18:30:50.363Z,74.39
2022-12-28T18:34:54.792Z,74.08
2022-12-28T18:38:58.140Z,73.35
2022-12-28T18:43:01.303Z,72.62
2022-12-28T18:47:04.747Z,72.72
2022-12-28T18:51:12.078Z,73.10
2022-12-28T18:55:15.712Z,73.16
2022-12-28T18:59:19.017Z,73.33
2022-12-28T19:03:22.576Z,73.81
2022-12-28T19:07:27.488Z,74.25
2022-12-28T19:11:31.291Z,73.89
2022-12-28T19:15:34.677Z,74.29
2022-12-28T19:19:38.083Z,74.46
2022-12-28T19:23:42.615Z,74.84
2022-12-28T19:27:45.932Z,74.90
2022-12-28T19:31:50.398Z,75.05
2022-12-28T19:35:53.685Z,75.60
2022-12-28T19:39:58.249Z,75.96
2022-12-28T19:44:01.808Z,75.99
2022-12-28T19:48:05.296Z,76.47
2022-12-28T19:52:08.538Z,76.23
2022-12-28T19:56:16.648Z,76.12
2022-12-28T20:00:20.231Z,75.89
2022-12-28T20:04:23.498Z,75.71
2022-12-28T20:08:26.981Z,75.79
2022-12-28T20:12:32.164Z,75.53
2022-12-28T20:16:37.302Z,75.30
2022-12-28T20:21:16.787Z,74.95
2022-12-28T20:25:03.922Z,75.05
2022-12-28T20:29:08.508Z,74.85
2022-12-28T20:33:11.783Z,75.02
2022-12-28T20:37:15.236Z,75.03
2022-12-28T20:41:38.061Z,74.86
2022-12-28T20:45:42.907Z,74.74
2022-12-28T20:49:46.500Z,74.55
2022-12-28T20:53:51.347Z,74.21
2022-12-28T20:57:55.314Z,74.01
2022-12-28T21:02:00.236Z,73.64
2022-12-28T21:06:04.663Z,73.17
2022-12-28T21:10:10.551Z,73.67
2022-12-28T21:14:13.934Z,73.12
2022-12-28T21:18:20.328Z,73.61
2022-12-28T21:22:23.491Z,73.14
2022-12-28T21:26:27.022Z,73.10
2022-12-28T21:30:30.572Z,73.58
2022-12-28T21:34:35.462Z,73.46
2022-12-28T21:38:43.552Z,72.95
2022-12-28T21:42:47.588Z,73.06
2022-12-28T21:46:52.591Z,73.76
2022-12-28T21:50:57.356Z,74.66
2022-12-28T21:55:22.340Z,74.73
2022-12-28T21:59:27.495Z,75.11
2022-12-28T22:03:49.059Z,74.93
2022-12-28T22:08:14.804Z,74.43
2022-12-28T22:12:35.418Z,74.45
2022-12-28T22:16:38.896Z,74.88
2022-12-28T22:20:42.511Z,74.98
2022-12-28T22:24:47.209Z,74.64
2022-12-28T22:28:50.359Z,74.67
2022-12-28T22:32:53.808Z,74.21
2022-12-28T22:36:57.242Z,74.40
2022-12-28T22:41:02.363Z,74.63
2022-12-28T22:45:05.974Z,74.72
2022-12-28T22:49:09.535Z,74.58
2022-12-28T22:53:12.939Z,74.08
2022-12-28T22:57:17.798Z,74.57
2022-12-28T23:01:21.873Z,75.08
2022-12-28T23:05:25.232Z,75.12
2022-12-28T23:09:28.502Z,74.62
2022-12-28T23:13:34.662Z,74.09
2022-12-28T23:17:37.978Z,74.36
2022-12-28T23:21:58.571Z,74.15
2022-12-28T23:26:19.434Z,74.06
2022-12-28T23:30:29.819Z,74.52
2022-12-28T23:34:33.210Z,75.00
2022-12-28T23:38:36.399Z,74.92
2022-12-28T23:42:41.415Z,74.92
2022-12-28T23:46:47.529Z,75.25
2022-12-28T23:50:50.771Z,74.96
2022-12-28T23:54:53.806Z,75.22
2022-12-28T23:58:57.072Z,74.73
